• Join FlightAware (Why Join?)
  • Login
  • US Flag 
06:13AM EDT


 

Airport Tracker/Info


-or-


 

Live Flight TrackerFlight Track Log ✈ N2173F ✈ 08-Dec-2013 ✈ KTLH - KECP

Flight Track Log - Related Links

Times and Time Zones

All times are in EST time to prevent confusion due to time zone crossing. See the N2173F flight status page for this flight to view local times or setup timezone preferences in your user account.

Time Position Orientation Groundspeed Altitude Reporting Facility
EST Latitude Longitude Course Direction KTS MPH feet Rate Location/Type
10:39AM 30.3916 -84.5430 268° West  Level FlightAware Approximate
10:40AM 30.3907 -84.5750 268° West  Level FlightAware Approximate
10:41AM 30.3899 -84.6070 268° West  Level FlightAware Approximate
10:42AM 30.3891 -84.6390 267° West  Level Estimated
10:43AM 30.3879 -84.6710 267° West  Level FlightAware Approximate
10:44AM 30.3866 -84.7030 267° West  Level FlightAware Approximate
10:45AM 30.3853 -84.7350 267° West  Level FlightAware Approximate
10:46AM 30.3841 -84.7670 267° West  Level FlightAware Approximate
10:47AM 30.3828 -84.7990 267° West  Level FlightAware Approximate
10:48AM 30.3815 -84.8310 267° West  Level FlightAware Approximate
10:49AM 30.3802 -84.8630 267° West  Level FlightAware Approximate
10:50AM 30.3789 -84.8950 267° West  Level FlightAware Approximate
10:51AM 30.3775 -84.9270 267° West  Level FlightAware Approximate
10:52AM 30.3762 -84.9589 267° West  Level FlightAware Approximate
10:53AM 30.3756 -84.9910 267° West  Level Estimated
10:54AM 30.3742 -85.0229 267° West  Level FlightAware Approximate
10:55AM 30.3727 -85.0549 267° West  Level FlightAware Approximate
10:56AM 30.3713 -85.0869 267° West  Level FlightAware Approximate
10:57AM 30.3698 -85.1189 267° West  Level FlightAware Approximate
10:58AM 30.3683 -85.1509 267° West  Level FlightAware Approximate
10:59AM 30.3668 -85.1829 267° West  Level FlightAware Approximate
11:00AM 30.3653 -85.2148 267° West  Level FlightAware Approximate
11:01AM 30.3638 -85.2468 267° West  Level FlightAware Approximate
11:02AM 30.3623 -85.2788 267° West  Level FlightAware Approximate
11:03AM 30.3608 -85.3108 267° West  Level FlightAware Approximate
11:04AM 30.3607 -85.3428 270° West  Level Estimated
11:05AM 30.3598 -85.3748 268° West  Level FlightAware Approximate
11:06AM 30.3588 -85.4068 268° West  Level FlightAware Approximate
11:07AM 30.3579 -85.4388 268° West  Level FlightAware Approximate
11:08AM 30.3570 -85.4708 268° West  Level FlightAware Approximate
11:09AM 30.3571 -85.5028 270° West  Level Estimated
11:10AM 30.3563 -85.5348 268° West  Level FlightAware Approximate
11:11AM 30.3556 -85.5668 268° West  Level FlightAware Approximate
11:12AM 30.3560 -85.5988 270° West  Level Estimated
11:13AM 30.3563 -85.6309 270° West  Level Estimated
11:14AM 30.3567 -85.6629 270° West  Level Estimated
11:15AM 30.3571 -85.6949 270° West  Level Estimated
11:16AM 30.3575 -85.7269 270° West  Level Estimated
11:17AM 30.3578 -85.7589 270° West  Level Estimated
11:18AM 30.3500 -85.7833 270° West  Level FlightAware Approximate
11:19AM 30.3582 -85.7956 270° West  Level Estimated
11:20AM 30.3582 -85.7956 270° West  Level Estimated
11:21AM 30.3582 -85.7956 270° West  Level Estimated
11:22AM 30.3582 -85.7956 270° West  Level Estimated
11:23AM 30.3582 -85.7956 270° West  Level Estimated
11:24AM 30.3582 -85.7956 270° West  Level Estimated
11:25AM 30.3582 -85.7956 270° West  Level Estimated
11:26AM 30.3582 -85.7956 270° West  Level Estimated
11:27AM 30.3582 -85.7956 270° West  Level Estimated
11:28AM 30.3582 -85.7956 270° West  Level Estimated
11:29AM 30.3582 -85.7956 270° West  Level Estimated
11:30AM 30.3582 -85.7956 270° West  Level Estimated
11:31AM 30.3582 -85.7956 270° West  Level Estimated
11:32AM 30.3582 -85.7956 270° West  Level Estimated